Time;durP1;ratioP1;P1;durP2;ratioP2;P2;SDS_P1;SDS_P2;PMS_P1;PMS_P2;Temp;Humidity;BMP_temperature;BMP_pressure;BME280_temperature;BME280_humidity;BME280_pressure;Samples;Min_cycle;Max_cycle;Signal;HPM_P1;HPM_P2
2021/01/18 00:00:22;;;;;;;97.30;31.77;;;3.70;97.20;;;;;;5092216;28;20431;-77
2021/01/18 00:02:48;;;;;;;94.13;28.58;;;3.70;97.20;;;;;;5092278;28;20470;-77
2021/01/18 00:05:13;;;;;;;90.22;28.50;;;3.70;97.30;;;;;;5107697;28;20460;-77
2021/01/18 00:07:43;;;;;;;92.33;29.40;;;3.80;97.20;;;;;;5112389;28;20459;-78
2021/01/18 00:10:14;;;;;;;95.10;29.30;;;3.80;97.20;;;;;;5110859;28;20941;-78
2021/01/18 00:12:50;;;;;;;93.70;29.70;;;3.80;97.20;;;;;;5111093;28;20400;-77
2021/01/18 00:15:17;;;;;;;101.03;31.55;;;3.80;97.20;;;;;;5094953;28;25109;-78
2021/01/18 00:17:44;;;;;;;96.20;32.88;;;3.80;97.30;;;;;;5091543;28;20372;-78
2021/01/18 00:20:11;;;;;;;95.30;30.42;;;3.80;97.40;;;;;;5091549;28;20370;-78
2021/01/18 00:22:38;;;;;;;76.55;28.05;;;3.80;97.40;;;;;;5090294;28;20415;-77
2021/01/18 00:25:13;;;;;;;92.78;30.13;;;3.80;97.30;;;;;;5090389;28;20522;-78
2021/01/18 00:27:40;;;;;;;91.28;29.92;;;3.90;97.40;;;;;;5092060;28;25175;-78
2021/01/18 00:30:30;;;;;;;95.95;32.53;;;3.90;97.30;;;;;;5110743;28;20802;-78
2021/01/18 00:32:59;;;;;;;87.82;31.27;;;3.80;97.40;;;;;;5109383;28;25097;-78
2021/01/18 00:35:25;;;;;;;90.85;32.47;;;3.80;97.40;;;;;;5111885;27;20459;-77
2021/01/18 00:37:52;;;;;;;100.43;32.67;;;3.90;97.40;;;;;;5111277;28;20805;-78
2021/01/18 00:40:24;;;;;;;81.47;30.15;;;3.80;97.30;;;;;;5112211;28;20374;-78
2021/01/18 00:42:49;;;;;;;60.78;23.67;;;3.80;97.30;;;;;;5111622;27;20392;-77
2021/01/18 00:45:17;;;;;;;36.67;11.70;;;3.70;97.10;;;;;;5111224;28;20388;-77
2021/01/18 00:47:43;;;;;;;21.67;7.28;;;3.50;96.10;;;;;;5111474;28;20380;-76
2021/01/18 00:50:10;;;;;;;17.85;6.20;;;3.40;96.00;;;;;;5111610;28;20429;-76
2021/01/18 00:52:39;;;;;;;17.88;5.75;;;3.30;96.30;;;;;;5110262;28;20835;-77
2021/01/18 00:55:05;;;;;;;17.90;5.13;;;3.20;96.40;;;;;;5111411;28;20410;-77
2021/01/18 00:57:34;;;;;;;17.50;4.93;;;3.30;96.10;;;;;;5111473;28;20377;-77
2021/01/18 01:00:00;;;;;;;15.80;3.70;;;3.30;96.40;;;;;;5110423;28;20420;-77
2021/01/18 01:02:26;;;;;;;13.03;4.07;;;3.40;95.70;;;;;;5111917;28;20379;-78
2021/01/18 01:04:52;;;;;;;14.52;3.45;;;3.30;95.90;;;;;;5111586;28;20377;-77
2021/01/18 01:07:17;;;;;;;21.38;4.00;;;3.30;95.70;;;;;;5093823;28;20862;-78
2021/01/18 01:09:43;;;;;;;13.13;3.88;;;3.30;95.90;;;;;;5091287;28;20400;-78
2021/01/18 01:12:08;;;;;;;19.25;4.80;;;3.40;95.90;;;;;;5091086;28;20374;-78
2021/01/18 01:14:34;;;;;;;19.48;5.90;;;3.40;95.90;;;;;;5091189;28;20455;-77
2021/01/18 01:17:00;;;;;;;34.97;6.93;;;3.40;96.50;;;;;;5090239;28;20378;-77
2021/01/18 01:19:25;;;;;;;31.47;7.87;;;3.40;96.70;;;;;;5091028;28;20408;-77
2021/01/18 01:21:51;;;;;;;38.93;10.13;;;3.40;96.90;;;;;;5090326;28;20378;-78
2021/01/18 01:24:19;;;;;;;36.23;10.53;;;3.40;96.90;;;;;;5089661;28;20390;-78
2021/01/18 01:26:45;;;;;;;42.63;10.88;;;3.40;97.00;;;;;;5090119;28;20382;-77
2021/01/18 01:29:11;;;;;;;39.15;13.55;;;3.40;97.20;;;;;;5090546;28;20382;-77
2021/01/18 01:31:37;;;;;;;41.13;13.52;;;3.40;97.30;;;;;;5090742;28;20867;-78
2021/01/18 01:34:03;;;;;;;45.40;13.47;;;3.40;97.20;;;;;;5090854;28;20386;-77
2021/01/18 01:36:28;;;;;;;56.88;18.25;;;3.40;97.30;;;;;;5090248;28;20398;-78
2021/01/18 01:38:54;;;;;;;47.90;17.67;;;3.40;97.50;;;;;;5089032;28;20393;-77
2021/01/18 01:41:20;;;;;;;51.45;18.63;;;3.40;97.40;;;;;;5090259;28;20869;-78
2021/01/18 01:43:45;;;;;;;64.35;22.73;;;3.40;97.50;;;;;;5088938;28;20382;-78
2021/01/18 01:46:11;;;;;;;69.55;23.40;;;3.50;97.50;;;;;;5089317;28;20880;-77
2021/01/18 01:48:37;;;;;;;77.25;25.85;;;3.50;97.50;;;;;;5089712;28;20378;-78
2021/01/18 01:51:03;;;;;;;65.18;23.98;;;3.50;97.60;;;;;;5090634;28;20385;-78
2021/01/18 01:53:29;;;;;;;73.65;27.35;;;3.40;97.50;;;;;;5090041;28;20374;-78
2021/01/18 01:55:57;;;;;;;64.95;27.67;;;3.40;97.60;;;;;;5088934;28;20425;-78
2021/01/18 01:58:25;;;;;;;74.47;27.77;;;3.40;97.50;;;;;;5089733;28;20371;-77
2021/01/18 02:00:51;;;;;;;79.10;29.50;;;3.40;97.60;;;;;;5089169;28;20439;-78
2021/01/18 02:03:42;;;;;;;78.25;28.88;;;3.40;97.80;;;;;;5090033;28;20368;-78
2021/01/18 02:06:09;;;;;;;84.18;28.38;;;3.40;97.70;;;;;;5092321;28;20397;-78
2021/01/18 02:08:35;;;;;;;78.50;31.25;;;3.50;97.80;;;;;;5092529;28;20489;-77
2021/01/18 02:11:01;;;;;;;76.82;30.20;;;3.50;97.80;;;;;;5094033;28;20381;-77
2021/01/18 02:13:53;;;;;;;74.68;29.83;;;3.50;97.80;;;;;;5094877;28;20669;-77
2021/01/18 02:16:30;;;;;;;70.75;26.30;;;3.50;97.80;;;;;;5093938;28;20959;-77
2021/01/18 02:19:27;;;;;;;60.55;24.02;;;3.50;97.70;;;;;;5094151;28;20380;-78
2021/01/18 02:22:27;;;;;;;60.20;23.60;;;3.40;97.50;;;;;;5094268;28;20415;-76
2021/01/18 02:25:26;;;;;;;62.95;24.30;;;3.40;97.60;;;;;;5094114;28;20424;-76
2021/01/18 02:28:00;;;;;;;61.70;22.25;;;3.40;97.60;;;;;;5082150;28;20421;-77
2021/01/18 02:30:32;;;;;;;69.80;23.23;;;3.40;97.60;;;;;;5092777;28;20385;-77
2021/01/18 02:33:18;;;;;;;54.35;20.70;;;3.40;97.60;;;;;;5092265;28;20458;-77
2021/01/18 02:36:05;;;;;;;53.33;18.67;;;3.40;97.60;;;;;;5092523;28;20708;-77
2021/01/18 02:38:49;;;;;;;49.47;18.15;;;3.40;97.60;;;;;;5093028;28;20926;-78
2021/01/18 02:41:23;;;;;;;49.67;17.17;;;3.40;97.50;;;;;;5093466;28;20720;-77
2021/01/18 02:43:52;;;;;;;39.53;16.27;;;3.40;97.50;;;;;;5092456;28;20893;-77
2021/01/18 02:46:20;;;;;;;39.65;15.48;;;3.40;97.50;;;;;;5092180;28;20392;-77
2021/01/18 02:48:47;;;;;;;41.90;13.23;;;3.40;97.20;;;;;;5091985;28;20889;-77
2021/01/18 02:51:18;;;;;;;36.25;13.48;;;3.30;97.00;;;;;;5093384;28;20375;-78
2021/01/18 02:53:57;;;;;;;41.03;13.90;;;3.30;96.90;;;;;;5093613;28;20459;-77
2021/01/18 02:56:33;;;;;;;36.47;13.52;;;3.30;97.00;;;;;;5093170;28;20452;-77
2021/01/18 02:59:00;;;;;;;39.70;14.00;;;3.30;97.00;;;;;;5091876;28;20459;-78
2021/01/18 03:01:50;;;;;;;42.45;15.43;;;3.30;97.00;;;;;;5093206;28;20412;-77
2021/01/18 03:04:40;;;;;;;46.92;15.95;;;3.30;97.20;;;;;;5092963;28;20866;-77
2021/01/18 03:07:25;;;;;;;44.17;16.60;;;3.30;97.20;;;;;;5093025;28;20380;-78
2021/01/18 03:09:58;;;;;;;52.15;17.33;;;3.20;97.10;;;;;;5091658;28;20882;-78
2021/01/18 03:12:29;;;;;;;41.23;17.47;;;3.20;97.10;;;;;;5093341;28;20548;-77
2021/01/18 03:14:56;;;;;;;55.97;18.02;;;3.20;97.10;;;;;;5093549;28;20402;-77
2021/01/18 03:17:26;;;;;;;55.47;19.77;;;3.20;97.10;;;;;;5090800;28;20477;-78
2021/01/18 03:19:52;;;;;;;65.55;20.52;;;3.10;97.20;;;;;;5091927;28;20851;-77
2021/01/18 03:22:27;;;;;;;50.83;19.77;;;3.10;97.40;;;;;;5092711;28;20748;-78
2021/01/18 03:25:02;;;;;;;48.47;21.35;;;3.10;97.30;;;;;;5093128;28;20421;-77
2021/01/18 03:27:28;;;;;;;62.30;22.13;;;3.20;97.40;;;;;;5092533;28;20935;-78
2021/01/18 03:29:54;;;;;;;65.83;24.07;;;3.10;97.60;;;;;;5091632;28;20425;-78
2021/01/18 03:32:20;;;;;;;59.58;23.67;;;3.20;97.50;;;;;;5092626;28;20382;-77
2021/01/18 03:34:46;;;;;;;73.63;24.00;;;3.20;97.60;;;;;;5093151;28;20915;-78
2021/01/18 03:37:11;;;;;;;66.22;24.33;;;3.20;97.60;;;;;;5092238;28;20382;-78
2021/01/18 03:39:37;;;;;;;62.63;25.30;;;3.20;97.60;;;;;;5092574;28;20378;-78
2021/01/18 03:42:03;;;;;;;71.00;26.43;;;3.20;97.50;;;;;;5091331;28;20402;-77
2021/01/18 03:44:28;;;;;;;71.10;26.57;;;3.20;97.60;;;;;;5092326;28;20378;-77
2021/01/18 03:46:54;;;;;;;67.93;26.30;;;3.20;97.60;;;;;;5092202;28;20378;-77
2021/01/18 03:49:19;;;;;;;77.73;27.60;;;3.10;97.60;;;;;;5092541;28;20385;-78
2021/01/18 03:51:45;;;;;;;75.63;26.73;;;3.20;97.50;;;;;;5092224;28;20378;-78
2021/01/18 03:54:10;;;;;;;74.07;28.17;;;3.10;97.60;;;;;;5092090;28;20972;-77
2021/01/18 03:56:40;;;;;;;66.87;26.73;;;3.10;97.60;;;;;;5090634;28;20824;-77
2021/01/18 03:59:07;;;;;;;62.55;25.50;;;3.00;97.60;;;;;;5092213;28;20388;-77
2021/01/18 04:01:39;;;;;;;61.40;23.92;;;3.00;97.70;;;;;;5092143;28;20855;-77
2021/01/18 04:04:06;;;;;;;68.45;23.88;;;3.10;97.70;;;;;;5091979;28;20773;-78
2021/01/18 04:06:36;;;;;;;65.00;23.40;;;3.10;97.50;;;;;;5090542;28;20395;-78
2021/01/18 04:09:03;;;;;;;50.85;19.85;;;3.10;97.40;;;;;;5090811;28;20413;-78
2021/01/18 04:11:29;;;;;;;50.45;19.88;;;3.10;97.40;;;;;;5091938;28;20378;-78
2021/01/18 04:13:54;;;;;;;56.72;19.25;;;3.10;97.40;;;;;;5093209;28;20428;-78
2021/01/18 04:16:20;;;;;;;50.20;19.75;;;3.00;97.40;;;;;;5108147;28;20453;-78
2021/01/18 04:18:46;;;;;;;55.03;21.95;;;3.00;97.30;;;;;;5097403;28;20447;-78
2021/01/18 04:21:11;;;;;;;47.43;19.73;;;3.00;97.30;;;;;;5091406;28;20410;-77
2021/01/18 04:23:37;;;;;;;50.03;20.70;;;3.00;97.40;;;;;;5090966;28;20568;-77
2021/01/18 04:26:02;;;;;;;54.27;22.93;;;3.00;97.30;;;;;;5090548;28;20382;-78
2021/01/18 04:28:28;;;;;;;57.57;23.57;;;3.00;97.40;;;;;;5090597;28;20408;-78
2021/01/18 04:30:53;;;;;;;63.40;26.03;;;3.10;97.60;;;;;;5090668;28;20467;-77
2021/01/18 04:33:19;;;;;;;71.93;27.80;;;3.00;97.60;;;;;;5091878;28;20374;-77
2021/01/18 04:35:44;;;;;;;69.95;27.30;;;3.10;97.70;;;;;;5092099;28;20927;-78
2021/01/18 04:38:10;;;;;;;68.37;27.27;;;3.10;97.60;;;;;;5091164;28;20393;-78
2021/01/18 04:40:36;;;;;;;69.57;27.23;;;3.10;97.70;;;;;;5090374;28;20881;-78
2021/01/18 04:43:02;;;;;;;77.27;28.60;;;3.10;97.70;;;;;;5090089;28;20382;-77
2021/01/18 04:45:29;;;;;;;73.45;28.05;;;3.10;97.70;;;;;;5091706;28;20659;-77
2021/01/18 04:47:57;;;;;;;68.20;27.38;;;3.20;97.80;;;;;;5090766;28;20466;-78
2021/01/18 04:50:25;;;;;;;72.32;28.35;;;3.20;97.70;;;;;;5092073;28;20401;-78
2021/01/18 04:52:52;;;;;;;82.95;28.83;;;3.20;97.70;;;;;;5089628;28;20390;-78
2021/01/18 04:55:30;;;;;;;68.78;27.98;;;3.20;97.70;;;;;;5091188;28;20392;-77
2021/01/18 04:58:07;;;;;;;68.85;28.40;;;3.20;97.70;;;;;;5089268;28;20739;-77
2021/01/18 05:00:39;;;;;;;80.43;30.20;;;3.20;97.70;;;;;;5089736;28;20390;-79
2021/01/18 05:03:07;;;;;;;69.97;28.25;;;3.20;97.70;;;;;;5089847;28;20934;-77
2021/01/18 05:05:51;;;;;;;78.75;29.88;;;3.20;97.60;;;;;;5091135;28;20435;-78
2021/01/18 05:08:28;;;;;;;76.10;27.52;;;3.20;97.60;;;;;;5089389;28;20414;-77
2021/01/18 05:10:56;;;;;;;73.05;28.52;;;3.20;97.50;;;;;;5090187;28;20386;-80
2021/01/18 05:13:22;;;;;;;72.75;27.27;;;3.20;97.60;;;;;;5089416;28;20387;-78
2021/01/18 05:15:48;;;;;;;74.65;28.60;;;3.20;97.60;;;;;;5089298;28;20397;-79
2021/01/18 05:18:14;;;;;;;70.88;27.70;;;3.20;97.60;;;;;;5088796;28;20484;-78
2021/01/18 05:20:40;;;;;;;66.40;25.67;;;3.20;97.60;;;;;;5090628;28;20374;-78
2021/01/18 05:23:08;;;;;;;63.63;25.45;;;3.20;97.50;;;;;;5089285;28;20393;-77
2021/01/18 05:25:35;;;;;;;65.13;26.50;;;3.20;97.50;;;;;;5090890;28;20382;-78
2021/01/18 05:28:07;;;;;;;68.70;25.92;;;3.20;97.50;;;;;;5090079;28;20374;-78
2021/01/18 05:30:41;;;;;;;65.78;24.58;;;3.20;97.50;;;;;;5090774;28;20378;-77
2021/01/18 05:33:09;;;;;;;73.70;25.47;;;3.30;97.30;;;;;;5090399;28;20374;-77
2021/01/18 05:35:38;;;;;;;67.05;25.02;;;3.30;97.20;;;;;;5090411;28;20412;-78
2021/01/18 05:38:10;;;;;;;59.05;24.40;;;3.30;97.30;;;;;;5088585;28;20390;-78
2021/01/18 05:40:50;;;;;;;69.43;26.77;;;3.20;97.20;;;;;;5090509;28;20723;-77
2021/01/18 05:43:17;;;;;;;58.00;24.77;;;3.30;97.20;;;;;;5089533;28;20394;-78
2021/01/18 05:45:44;;;;;;;62.88;24.48;;;3.20;97.20;;;;;;5089016;28;20397;-78
2021/01/18 05:48:11;;;;;;;66.85;25.17;;;3.20;97.20;;;;;;5088755;28;20397;-77
2021/01/18 05:50:38;;;;;;;60.58;24.33;;;3.20;97.30;;;;;;5089047;28;20804;-78
2021/01/18 05:53:24;;;;;;;64.97;26.13;;;3.20;97.30;;;;;;5088111;28;20389;-78
2021/01/18 05:55:50;;;;;;;65.87;24.57;;;3.30;97.20;;;;;;5090207;28;20421;-78
2021/01/18 05:58:30;;;;;;;66.70;26.30;;;3.20;97.20;;;;;;5089895;28;20405;-78
2021/01/18 06:00:57;;;;;;;61.72;24.35;;;3.20;97.30;;;;;;5090310;28;20710;-77
2021/01/18 06:03:28;;;;;;;61.95;25.10;;;3.30;97.30;;;;;;5090143;28;20742;-78
2021/01/18 06:05:54;;;;;;;61.28;25.90;;;3.20;97.20;;;;;;5090424;28;20435;-78
2021/01/18 06:08:20;;;;;;;65.78;24.27;;;3.20;97.20;;;;;;5089617;28;20370;-78
2021/01/18 06:10:48;;;;;;;66.70;25.10;;;3.20;97.30;;;;;;5090422;28;20431;-78
2021/01/18 06:13:20;;;;;;;50.17;24.13;;;3.30;97.30;;;;;;5088794;28;20703;-78
2021/01/18 06:15:48;;;;;;;63.43;25.20;;;3.30;97.30;;;;;;5088988;28;20410;-78
2021/01/18 06:18:15;;;;;;;67.95;25.70;;;3.30;97.30;;;;;;5088060;28;20390;-77
2021/01/18 06:20:42;;;;;;;66.15;25.38;;;3.20;97.30;;;;;;5089951;28;20893;-78
2021/01/18 06:23:08;;;;;;;65.45;25.40;;;3.20;97.30;;;;;;5088335;28;20389;-78
2021/01/18 06:25:36;;;;;;;59.55;26.38;;;3.20;97.40;;;;;;5090058;28;20891;-77
2021/01/18 06:28:22;;;;;;;66.85;25.77;;;3.30;97.30;;;;;;5088078;28;20382;-79
2021/01/18 06:30:58;;;;;;;64.80;28.52;;;3.30;97.30;;;;;;5089644;28;20393;-77
2021/01/18 06:33:41;;;;;;;74.60;25.98;;;3.30;97.20;;;;;;5089972;28;20486;-77
2021/01/18 06:36:25;;;;;;;71.10;26.13;;;3.30;97.30;;;;;;5089787;28;20440;-77
2021/01/18 06:38:57;;;;;;;72.82;26.60;;;3.30;97.30;;;;;;5089784;28;20444;-78
2021/01/18 06:41:28;;;;;;;69.18;25.48;;;3.20;97.30;;;;;;5088487;28;20443;-78
2021/01/18 06:43:54;;;;;;;61.92;25.60;;;3.20;97.30;;;;;;5088630;28;20424;-77
2021/01/18 06:46:23;;;;;;;65.40;23.50;;;3.20;97.30;;;;;;5088811;28;20409;-77
2021/01/18 06:48:50;;;;;;;63.05;24.98;;;3.20;97.30;;;;;;5088141;28;20391;-78
2021/01/18 06:51:18;;;;;;;64.95;24.73;;;3.20;97.30;;;;;;5089695;28;20730;-78
2021/01/18 06:53:47;;;;;;;65.55;24.67;;;3.20;97.30;;;;;;5093548;28;20378;-77
2021/01/18 06:56:21;;;;;;;62.50;24.88;;;3.20;97.30;;;;;;5093746;28;20687;-77
2021/01/18 06:59:24;;;;;;;64.38;25.67;;;3.20;97.10;;;;;;5092824;28;20409;-78
2021/01/18 07:02:06;;;;;;;73.77;26.93;;;3.20;97.10;;;;;;5092122;28;20382;-77
2021/01/18 07:04:43;;;;;;;69.95;26.52;;;3.10;97.20;;;;;;5093996;28;20402;-78
2021/01/18 07:07:25;;;;;;;65.32;26.42;;;3.10;97.20;;;;;;5093191;28;20886;-79
2021/01/18 07:09:59;;;;;;;69.83;26.30;;;3.10;97.30;;;;;;5093558;28;20396;-78
2021/01/18 07:12:26;;;;;;;63.35;27.02;;;3.20;97.30;;;;;;5092886;28;25197;-78
2021/01/18 07:14:58;;;;;;;60.17;25.52;;;3.10;97.30;;;;;;5092292;28;20392;-79
2021/01/18 07:17:36;;;;;;;68.35;24.75;;;3.20;97.40;;;;;;5092870;28;20731;-78
2021/01/18 07:20:03;;;;;;;76.30;28.77;;;3.10;97.40;;;;;;5093332;28;20382;-78
2021/01/18 07:22:46;;;;;;;72.45;25.63;;;3.20;97.30;;;;;;5093074;28;20432;-78
2021/01/18 07:25:12;;;;;;;71.55;26.33;;;3.10;97.30;;;;;;5092689;28;20425;-77
2021/01/18 07:27:46;;;;;;;75.80;29.63;;;3.20;97.30;;;;;;5092820;28;20411;-78
2021/01/18 07:30:12;;;;;;;68.70;29.25;;;3.20;97.30;;;;;;5092300;28;25116;-78
2021/01/18 07:32:37;;;;;;;76.50;27.92;;;3.20;97.30;;;;;;5091417;28;20938;-77
2021/01/18 07:35:04;;;;;;;62.63;27.27;;;3.20;97.30;;;;;;5091121;28;20535;-78
2021/01/18 07:37:30;;;;;;;76.93;28.80;;;3.20;97.30;;;;;;5092317;28;20376;-79
2021/01/18 07:40:09;;;;;;;64.53;27.07;;;3.20;97.30;;;;;;5093478;28;20381;-78
2021/01/18 07:42:34;;;;;;;76.05;28.17;;;3.30;97.30;;;;;;5112671;27;20382;-77
2021/01/18 07:45:16;;;;;;;74.93;28.50;;;3.30;97.30;;;;;;5111277;28;20893;-77
2021/01/18 07:47:53;;;;;;;64.63;26.05;;;3.30;97.20;;;;;;5110705;28;20921;-78
2021/01/18 07:50:41;;;;;;;66.50;25.87;;;3.30;97.30;;;;;;5111503;28;25177;-78
2021/01/18 07:53:11;;;;;;;68.47;24.35;;;3.30;97.30;;;;;;5112126;28;20397;-78
2021/01/18 07:55:38;;;;;;;67.60;25.52;;;3.30;97.10;;;;;;5112825;28;20704;-79
2021/01/18 07:58:20;;;;;;;61.42;23.35;;;3.40;97.00;;;;;;5112065;28;20375;-77
2021/01/18 08:01:06;;;;;;;59.78;24.40;;;3.40;96.80;;;;;;5111105;28;20396;-78
2021/01/18 08:03:31;;;;;;;64.72;24.17;;;3.30;97.00;;;;;;5111700;28;20476;-77
2021/01/18 08:06:09;;;;;;;57.13;23.33;;;3.40;96.80;;;;;;5110964;28;20467;-78
2021/01/18 08:08:35;;;;;;;56.85;23.17;;;3.30;96.80;;;;;;5112011;28;20399;-78
2021/01/18 08:11:19;;;;;;;59.38;22.45;;;3.40;96.70;;;;;;5112220;28;20383;-77
2021/01/18 08:13:56;;;;;;;51.58;21.25;;;3.30;96.70;;;;;;5111072;28;20387;-78
2021/01/18 08:16:39;;;;;;;54.40;20.20;;;3.30;96.70;;;;;;5110881;28;20403;-78
2021/01/18 08:19:24;;;;;;;59.85;20.75;;;3.30;96.50;;;;;;5112131;28;20439;-78
2021/01/18 08:22:07;;;;;;;58.00;18.85;;;3.30;96.30;;;;;;5112274;28;20511;-78
2021/01/18 08:24:34;;;;;;;50.78;19.88;;;3.40;96.10;;;;;;5111959;27;20507;-78
2021/01/18 08:27:00;;;;;;;57.22;20.77;;;3.40;96.30;;;;;;5111837;28;20388;-77
2021/01/18 08:29:51;;;;;;;72.75;22.83;;;3.40;96.40;;;;;;5112157;28;20463;-79
2021/01/18 08:34:50;;;;;;;66.65;23.45;;;3.40;96.10;;;;;;5111874;28;20405;-79
2021/01/18 08:37:16;;;;;;;62.33;24.60;;;3.40;96.30;;;;;;5110186;28;20872;-77
2021/01/18 08:40:11;;;;;;;54.17;20.77;;;3.40;96.30;;;;;;5112047;28;20384;-78
2021/01/18 08:42:38;;;;;;;57.20;22.15;;;3.50;96.00;;;;;;5102771;28;20384;-78
2021/01/18 08:45:23;;;;;;;58.33;21.05;;;3.40;96.40;;;;;;5110669;28;20393;-77
2021/01/18 08:48:00;;;;;;;64.00;21.83;;;3.50;96.10;;;;;;5110177;28;20457;-78
2021/01/18 08:50:38;;;;;;;64.32;20.83;;;3.50;96.30;;;;;;5111479;27;20392;-77
2021/01/18 08:53:23;;;;;;;51.13;18.67;;;3.50;96.40;;;;;;5111783;28;20788;-78
2021/01/18 08:56:03;;;;;;;57.43;19.13;;;3.60;96.00;;;;;;5109909;28;20511;-78
2021/01/18 08:58:41;;;;;;;57.20;19.17;;;3.70;96.00;;;;;;5109979;28;20416;-77
2021/01/18 09:01:20;;;;;;;50.42;18.60;;;3.70;96.00;;;;;;5111190;28;20377;-79
2021/01/18 09:03:56;;;;;;;50.17;15.55;;;3.80;95.60;;;;;;5110048;28;20879;-77
2021/01/18 09:06:22;;;;;;;41.45;15.43;;;3.80;95.80;;;;;;5111899;28;20904;-77
2021/01/18 09:08:47;;;;;;;51.47;16.47;;;3.80;95.80;;;;;;5109481;28;20388;-79
2021/01/18 09:11:13;;;;;;;47.27;15.57;;;3.80;95.50;;;;;;5110100;28;20405;-77
2021/01/18 09:13:40;;;;;;;54.67;17.17;;;3.80;95.60;;;;;;5111092;28;20495;-77
2021/01/18 09:16:07;;;;;;;40.05;14.50;;;3.80;95.70;;;;;;5111342;28;20403;-79
2021/01/18 09:18:34;;;;;;;39.67;15.95;;;3.80;95.40;;;;;;5110498;28;20381;-77
2021/01/18 09:21:01;;;;;;;46.13;14.90;;;3.80;95.60;;;;;;5110005;28;20467;-78
2021/01/18 09:23:26;;;;;;;37.85;16.25;;;3.80;95.40;;;;;;5109528;28;20389;-79
2021/01/18 09:26:00;;;;;;;53.67;16.00;;;3.80;95.50;;;;;;5111049;28;20395;-78
2021/01/18 09:28:26;;;;;;;50.75;18.13;;;3.80;95.30;;;;;;5110764;28;20387;-79
2021/01/18 09:30:52;;;;;;;51.78;17.35;;;3.90;95.50;;;;;;5110758;28;20517;-77
2021/01/18 09:33:17;;;;;;;48.72;18.02;;;3.80;95.30;;;;;;5111144;28;20459;-79
2021/01/18 09:35:45;;;;;;;44.67;18.25;;;3.80;95.40;;;;;;5109517;28;20439;-77
2021/01/18 09:38:13;;;;;;;50.53;17.92;;;3.80;95.60;;;;;;5110318;28;20509;-77
2021/01/18 09:40:43;;;;;;;53.78;17.45;;;3.90;95.10;;;;;;5110547;28;20771;-78
2021/01/18 09:43:10;;;;;;;50.67;18.30;;;3.80;95.30;;;;;;5110949;28;20416;-77
2021/01/18 09:45:36;;;;;;;55.78;18.92;;;3.80;95.50;;;;;;5110733;28;20379;-77
2021/01/18 09:48:04;;;;;;;54.47;19.02;;;3.80;95.50;;;;;;5109856;28;20383;-77
2021/01/18 09:50:30;;;;;;;48.83;17.33;;;3.80;95.70;;;;;;5110635;28;20451;-78
2021/01/18 09:52:57;;;;;;;47.97;17.73;;;3.80;95.10;;;;;;5106586;28;20467;-79
2021/01/18 09:55:35;;;;;;;49.00;19.05;;;3.90;95.50;;;;;;5109890;28;20688;-78
2021/01/18 09:58:08;;;;;;;49.87;18.13;;;3.90;95.30;;;;;;5107186;28;20424;-78
2021/01/18 10:00:37;;;;;;;51.72;17.10;;;3.90;95.50;;;;;;5108951;28;20422;-79
2021/01/18 10:03:03;;;;;;;53.38;16.75;;;3.90;95.20;;;;;;5110110;28;20407;-78
2021/01/18 10:05:34;;;;;;;48.63;18.48;;;3.90;94.90;;;;;;5110979;28;20403;-77
2021/01/18 10:08:09;;;;;;;51.47;18.48;;;3.90;95.00;;;;;;5109951;28;20431;-78
2021/01/18 10:10:43;;;;;;;51.25;17.80;;;4.00;95.20;;;;;;5111027;28;20419;-78
2021/01/18 10:13:13;;;;;;;55.05;18.38;;;4.00;95.10;;;;;;5109003;28;20400;-77
2021/01/18 10:15:39;;;;;;;57.70;17.85;;;4.00;95.20;;;;;;5109786;28;20457;-77
2021/01/18 10:18:04;;;;;;;48.67;17.90;;;4.00;95.00;;;;;;5107141;28;20428;-78
2021/01/18 10:20:30;;;;;;;47.43;16.63;;;4.00;94.70;;;;;;5109364;28;20370;-77
2021/01/18 10:22:57;;;;;;;43.28;17.27;;;4.10;94.50;;;;;;5110543;28;20373;-78
2021/01/18 10:25:29;;;;;;;50.10;16.02;;;4.10;94.60;;;;;;5108967;28;20481;-78
2021/01/18 10:27:56;;;;;;;40.72;14.48;;;4.20;94.20;;;;;;5110628;28;20528;-78
2021/01/18 10:30:29;;;;;;;42.70;14.07;;;4.20;94.00;;;;;;5113447;28;20405;-77
2021/01/18 10:32:56;;;;;;;33.55;14.20;;;4.20;93.60;;;;;;5112871;28;20935;-77
2021/01/18 10:35:31;;;;;;;42.47;14.77;;;4.30;93.80;;;;;;5114266;28;20402;-78
2021/01/18 10:38:12;;;;;;;38.33;14.13;;;4.30;94.10;;;;;;5113290;28;20454;-78
2021/01/18 10:40:38;;;;;;;38.38;14.32;;;4.30;93.70;;;;;;5112049;28;20407;-77
2021/01/18 10:43:06;;;;;;;34.67;13.13;;;4.30;93.20;;;;;;5112327;28;20472;-78
2021/01/18 10:45:32;;;;;;;44.05;13.77;;;4.30;93.20;;;;;;5114500;27;20782;-78
2021/01/18 10:48:01;;;;;;;41.95;13.82;;;4.30;93.20;;;;;;5113385;28;20387;-77
2021/01/18 10:50:31;;;;;;;45.70;14.10;;;4.30;93.40;;;;;;5112087;28;20414;-78
2021/01/18 10:53:08;;;;;;;32.83;12.43;;;4.20;93.20;;;;;;5113518;28;20395;-78
2021/01/18 10:55:36;;;;;;;34.67;13.57;;;4.30;93.00;;;;;;5112453;28;20784;-78
2021/01/18 10:58:02;;;;;;;39.08;12.65;;;4.30;92.90;;;;;;5113371;28;20381;-77
2021/01/18 11:00:29;;;;;;;33.33;13.13;;;4.30;92.70;;;;;;5113791;28;20374;-78
2021/01/18 11:03:03;;;;;;;36.88;13.02;;;4.30;92.70;;;;;;5113808;28;20372;-79
2021/01/18 11:05:39;;;;;;;46.60;12.25;;;4.40;92.30;;;;;;5113926;28;20410;-78
2021/01/18 11:08:07;;;;;;;41.13;12.10;;;4.40;91.80;;;;;;5113793;28;20509;-77
2021/01/18 11:10:43;;;;;;;37.75;12.73;;;4.40;92.30;;;;;;5112589;28;20391;-79
2021/01/18 11:13:16;;;;;;;33.72;12.02;;;4.40;92.20;;;;;;5109606;28;20470;-78
2021/01/18 11:15:43;;;;;;;33.42;11.27;;;4.40;92.00;;;;;;5110916;28;20883;-79
2021/01/18 11:18:11;;;;;;;36.13;10.35;;;4.40;91.80;;;;;;5112129;28;20411;-77
2021/01/18 11:20:39;;;;;;;29.42;9.52;;;4.50;90.90;;;;;;5112074;28;20890;-79
2021/01/18 11:23:09;;;;;;;32.20;9.35;;;4.60;90.40;;;;;;5113161;28;20760;-77
2021/01/18 11:25:36;;;;;;;23.55;8.45;;;4.70;91.20;;;;;;5112164;28;20423;-78
2021/01/18 11:28:13;;;;;;;28.90;9.35;;;4.60;89.90;;;;;;5110452;28;20392;-78
2021/01/18 11:30:41;;;;;;;26.40;8.10;;;4.50;90.10;;;;;;5091691;28;20423;-78
2021/01/18 11:33:09;;;;;;;27.35;9.13;;;4.60;90.30;;;;;;5101030;28;20395;-78
2021/01/18 11:35:35;;;;;;;24.45;7.22;;;4.80;90.30;;;;;;5105773;28;20406;-78
2021/01/18 11:38:01;;;;;;;19.55;7.05;;;4.80;89.20;;;;;;5093280;28;20400;-78
2021/01/18 11:40:27;;;;;;;24.90;8.00;;;4.90;89.70;;;;;;5103907;28;20384;-78
2021/01/18 11:42:56;;;;;;;22.35;7.55;;;5.00;89.80;;;;;;5092165;28;20386;-78
2021/01/18 11:45:22;;;;;;;22.02;7.10;;;4.90;89.10;;;;;;5093038;28;20412;-79
2021/01/18 11:47:48;;;;;;;24.75;7.03;;;4.90;89.90;;;;;;5090523;28;20393;-78
2021/01/18 11:50:13;;;;;;;21.85;7.13;;;4.90;89.90;;;;;;5090790;28;20885;-78
2021/01/18 11:52:44;;;;;;;19.27;6.20;;;4.90;89.20;;;;;;5090217;28;20374;-79
2021/01/18 11:55:14;;;;;;;16.65;5.50;;;4.80;89.00;;;;;;5090578;28;20413;-78
2021/01/18 11:57:41;;;;;;;26.63;7.07;;;4.80;89.10;;;;;;5090671;28;20386;-78
2021/01/18 12:00:07;;;;;;;29.40;7.20;;;4.90;89.50;;;;;;5103283;28;20423;-80
2021/01/18 12:02:32;;;;;;;24.83;6.97;;;4.90;89.80;;;;;;5111316;28;20416;-79
2021/01/18 12:04:58;;;;;;;23.23;6.70;;;4.90;88.80;;;;;;5096284;28;20376;-79
2021/01/18 12:07:24;;;;;;;21.57;6.40;;;4.90;89.60;;;;;;5090568;28;20870;-80
2021/01/18 12:09:49;;;;;;;23.90;6.30;;;4.90;89.10;;;;;;5091686;28;20374;-80
2021/01/18 12:12:15;;;;;;;25.77;7.10;;;4.90;89.10;;;;;;5091074;28;20378;-80
2021/01/18 12:14:40;;;;;;;21.50;6.40;;;4.90;88.70;;;;;;5092757;28;20431;-80
2021/01/18 12:17:06;;;;;;;24.07;6.13;;;4.90;88.40;;;;;;5110424;28;20412;-80
2021/01/18 12:19:32;;;;;;;21.02;7.38;;;4.90;88.60;;;;;;5111806;28;20463;-79
2021/01/18 12:21:58;;;;;;;19.80;6.28;;;5.00;89.00;;;;;;5110351;28;20381;-80
2021/01/18 12:24:24;;;;;;;22.48;6.25;;;5.10;89.20;;;;;;5110691;28;20364;-80
2021/01/18 12:26:51;;;;;;;14.35;5.38;;;5.10;88.60;;;;;;5110689;27;20383;-80
2021/01/18 12:29:17;;;;;;;20.75;5.88;;;5.00;88.20;;;;;;5111811;28;20845;-80
2021/01/18 12:31:42;;;;;;;19.03;5.87;;;5.00;88.10;;;;;;5110374;28;20398;-80
2021/01/18 12:34:08;;;;;;;14.37;4.93;;;5.00;88.30;;;;;;5110861;28;20391;-80
2021/01/18 12:36:33;;;;;;;14.00;5.17;;;5.00;87.90;;;;;;5110143;28;20404;-79
2021/01/18 12:38:59;;;;;;;20.23;6.40;;;5.00;88.10;;;;;;5110307;28;20389;-79
2021/01/18 12:41:25;;;;;;;22.70;5.00;;;5.00;88.40;;;;;;5110259;28;20372;-81
2021/01/18 12:43:50;;;;;;;21.08;5.97;;;5.00;87.80;;;;;;5110327;28;20475;-80
2021/01/18 12:46:19;;;;;;;24.27;5.65;;;5.00;87.50;;;;;;5111175;28;20804;-80
2021/01/18 12:48:44;;;;;;;14.10;4.68;;;5.10;88.30;;;;;;5108369;28;20475;-80
2021/01/18 12:51:16;;;;;;;20.08;5.35;;;5.10;87.60;;;;;;5106156;28;20461;-80
2021/01/18 12:53:43;;;;;;;24.45;5.60;;;5.10;88.40;;;;;;5091217;28;20435;-80
2021/01/18 12:56:09;;;;;;;18.52;5.13;;;5.10;87.50;;;;;;5089834;28;20425;-80